Time;durP1;ratioP1;P1;durP2;ratioP2;P2;SDS_P1;SDS_P2;PMS_P1;PMS_P2;Temp;Humidity;BMP_temperature;BMP_pressure;BME280_temperature;BME280_humidity;BME280_pressure;Samples;Min_cycle;Max_cycle;Signal;HPM_P1;HPM_P2
2022/03/08 00:01:42;;;;;;;8.55;6.93;;;;;;;-1.42;65.61;102326.44;5009674;28;20504;-73
2022/03/08 00:04:07;;;;;;;10.73;6.55;;;;;;;-1.45;65.49;102326.25;5007900;28;20073;-73
2022/03/08 00:06:33;;;;;;;8.80;6.85;;;;;;;-1.47;65.83;102327.84;5012406;28;20045;-73
2022/03/08 00:08:58;;;;;;;16.02;8.40;;;;;;;-1.53;66.07;102318.88;5024965;28;20038;-73
2022/03/08 00:11:24;;;;;;;9.23;6.25;;;;;;;-1.57;65.71;102325.50;5010101;28;20041;-74
2022/03/08 00:13:51;;;;;;;13.30;8.00;;;;;;;-1.61;65.82;102328.66;5013628;28;20132;-74
2022/03/08 00:16:17;;;;;;;11.20;6.40;;;;;;;-1.66;65.94;102330.09;5023586;28;20452;-73
2022/03/08 00:18:44;;;;;;;9.95;6.95;;;;;;;-1.64;66.11;102318.19;5010794;28;20089;-73
2022/03/08 00:21:11;;;;;;;10.52;6.40;;;;;;;-1.67;65.87;102324.03;4989266;28;20025;-74
2022/03/08 00:23:37;;;;;;;7.88;5.68;;;;;;;-1.69;66.27;102324.75;5008304;28;20099;-74
2022/03/08 00:26:51;;;;;;;11.35;7.90;;;;;;;-1.72;65.90;102314.25;5021535;28;20030;-74
2022/03/08 00:29:19;;;;;;;11.13;6.80;;;;;;;-1.75;65.96;102320.13;5024625;28;20037;-73
2022/03/08 00:31:44;;;;;;;15.13;8.07;;;;;;;-1.78;65.92;102310.53;5008718;28;20037;-72
2022/03/08 00:34:10;;;;;;;9.68;6.05;;;;;;;-1.75;65.93;102313.28;4992967;28;20025;-73
2022/03/08 00:36:36;;;;;;;7.72;5.53;;;;;;;-1.79;65.56;102311.31;5010692;28;20037;-73
2022/03/08 00:39:02;;;;;;;16.30;7.45;;;;;;;-1.80;65.51;102311.22;5013464;28;20124;-73
2022/03/08 00:41:30;;;;;;;10.00;6.40;;;;;;;-1.81;65.06;102315.47;5024693;28;20099;-73
2022/03/08 00:43:57;;;;;;;9.25;6.78;;;;;;;-1.85;65.12;102307.47;5008124;28;20037;-73
2022/03/08 00:46:23;;;;;;;9.77;6.88;;;;;;;-1.83;65.58;102306.78;4995123;28;20048;-73
2022/03/08 00:48:48;;;;;;;8.85;6.43;;;;;;;-1.87;65.35;102309.06;5003577;28;20042;-73
2022/03/08 00:51:17;;;;;;;9.27;6.07;;;;;;;-1.87;65.15;102311.63;5012737;28;20042;-72
2022/03/08 00:53:45;;;;;;;9.50;5.97;;;;;;;-1.85;65.20;102310.94;5004403;28;20057;-74
2022/03/08 00:56:11;;;;;;;9.43;6.78;;;;;;;-1.85;64.81;102316.09;5009744;28;20375;-74
2022/03/08 00:58:36;;;;;;;9.77;6.13;;;;;;;-1.83;65.02;102317.06;5011764;28;20052;-73
2022/03/08 01:01:03;;;;;;;8.20;6.45;;;;;;;-1.80;64.88;102317.25;5012132;28;20033;-74
2022/03/08 01:03:29;;;;;;;8.02;5.70;;;;;;;-1.78;64.97;102315.66;5028111;28;20546;-75
2022/03/08 01:05:54;;;;;;;10.60;7.35;;;;;;;-1.68;65.03;102316.22;5012013;28;20037;-75
2022/03/08 01:08:19;;;;;;;9.70;5.70;;;;;;;-1.63;63.92;102305.44;5004795;28;20439;-73
2022/03/08 01:10:45;;;;;;;12.35;5.88;;;;;;;-1.58;63.60;102314.34;5023330;28;20048;-73
2022/03/08 01:13:13;;;;;;;7.95;5.82;;;;;;;-1.57;64.09;102307.50;5008631;28;20044;-73
2022/03/08 01:15:38;;;;;;;8.38;5.90;;;;;;;-1.54;63.75;102310.25;4992572;28;20083;-73
2022/03/08 01:18:04;;;;;;;12.98;6.50;;;;;;;-1.52;63.40;102306.13;4993626;28;20409;-74
2022/03/08 01:20:32;;;;;;;6.45;5.68;;;;;;;-1.53;63.45;102306.91;5025989;28;20184;-75
2022/03/08 01:22:57;;;;;;;8.18;5.28;;;;;;;-1.53;63.56;102298.31;5019687;28;20033;-73
2022/03/08 01:25:25;;;;;;;9.43;5.68;;;;;;;-1.57;63.43;102294.66;5005276;28;20509;-73
2022/03/08 01:27:51;;;;;;;7.70;5.43;;;;;;;-1.60;63.05;102299.59;4994238;28;20523;-73
2022/03/08 01:30:19;;;;;;;9.75;6.30;;;;;;;-1.66;64.34;102297.53;5029178;28;20120;-73
2022/03/08 01:32:45;;;;;;;11.00;6.00;;;;;;;-1.68;63.97;102287.94;5026140;28;20044;-72
2022/03/08 01:35:11;;;;;;;7.00;5.38;;;;;;;-1.74;63.92;102285.91;5029246;28;20522;-73
2022/03/08 01:37:37;;;;;;;9.10;6.22;;;;;;;-1.76;63.94;102285.81;4994690;28;20034;-72
2022/03/08 01:40:05;;;;;;;8.93;6.22;;;;;;;-1.71;63.91;102280.06;5014408;28;20064;-74
2022/03/08 01:42:31;;;;;;;8.20;5.43;;;;;;;-1.79;64.19;102275.34;5012829;28;20048;-72
2022/03/08 01:44:56;;;;;;;11.38;6.45;;;;;;;-1.83;64.04;102267.34;5014241;28;20041;-72
2022/03/08 01:47:26;;;;;;;8.55;6.38;;;;;;;-1.83;64.49;102264.78;4999270;28;20128;-73
2022/03/08 01:49:53;;;;;;;7.20;5.70;;;;;;;-1.81;63.99;102266.66;5023071;28;20040;-73
2022/03/08 01:52:23;;;;;;;7.82;5.72;;;;;;;-1.82;64.98;102266.56;5011963;28;20041;-75
2022/03/08 01:54:50;;;;;;;9.60;5.72;;;;;;;-1.79;64.43;102259.91;5007468;28;20040;-74
2022/03/08 01:57:16;;;;;;;8.27;5.75;;;;;;;-1.76;64.17;102256.66;5027710;28;20480;-73
2022/03/08 01:59:42;;;;;;;7.22;5.90;;;;;;;-1.68;63.42;102250.31;5018675;28;20072;-77
2022/03/08 02:02:08;;;;;;;7.97;5.65;;;;;;;-1.60;63.46;102250.75;5027055;28;20022;-76
2022/03/08 02:04:34;;;;;;;7.80;5.15;;;;;;;-1.52;62.68;102251.22;5004019;28;20077;-73
2022/03/08 02:07:04;;;;;;;8.35;5.55;;;;;;;-1.46;62.99;102244.75;5006607;28;20149;-74
2022/03/08 02:09:30;;;;;;;9.40;6.07;;;;;;;-1.35;62.70;102239.38;5030577;28;20037;-74
2022/03/08 02:11:55;;;;;;;6.65;5.13;;;;;;;-1.36;62.36;102240.19;5030164;28;20069;-76
2022/03/08 02:14:23;;;;;;;8.30;5.45;;;;;;;-1.26;61.69;102229.63;5000078;28;20056;-72
2022/03/08 02:16:50;;;;;;;5.97;5.18;;;;;;;-1.24;62.23;102234.06;5015721;28;20060;-72
2022/03/08 02:19:15;;;;;;;10.25;5.15;;;;;;;-1.25;62.76;102231.38;5005549;28;20116;-73
2022/03/08 02:21:45;;;;;;;8.68;5.30;;;;;;;-1.19;61.97;102224.06;5015429;28;20607;-73
2022/03/08 02:24:11;;;;;;;8.40;6.10;;;;;;;-1.20;62.63;102229.13;5032275;28;20053;-73
2022/03/08 02:26:37;;;;;;;8.10;6.55;;;;;;;-1.21;62.21;102230.78;5032603;28;20053;-74
2022/03/08 02:29:05;;;;;;;10.30;5.45;;;;;;;-1.13;62.06;102221.84;5008206;28;20030;-73
2022/03/08 02:31:30;;;;;;;11.27;5.13;;;;;;;-1.13;61.42;102219.25;5013637;28;20083;-73
2022/03/08 02:33:56;;;;;;;10.57;5.40;;;;;;;-1.22;62.39;102219.63;5015864;28;20517;-73
2022/03/08 02:36:23;;;;;;;8.55;5.45;;;;;;;-1.28;62.53;102221.84;5032588;28;20028;-73
2022/03/08 02:38:48;;;;;;;9.05;5.32;;;;;;;-1.33;62.86;102217.22;5015657;28;20101;-72
2022/03/08 02:41:18;;;;;;;8.10;5.65;;;;;;;-1.36;62.59;102222.19;5013608;28;20052;-72
2022/03/08 02:43:46;;;;;;;7.72;5.60;;;;;;;-1.38;62.78;102226.34;5007182;28;20037;-73
2022/03/08 02:46:12;;;;;;;9.40;6.10;;;;;;;-1.37;63.16;102221.28;5010045;28;20030;-73
2022/03/08 02:48:37;;;;;;;11.05;6.25;;;;;;;-1.40;62.84;102221.97;5009307;28;20402;-73
2022/03/08 02:51:04;;;;;;;6.30;5.25;;;;;;;-1.45;63.28;102218.25;5004640;28;20125;-72
2022/03/08 02:53:34;;;;;;;7.68;5.78;;;;;;;-1.49;63.66;102216.31;5010425;28;20037;-74
2022/03/08 02:56:00;;;;;;;9.02;5.72;;;;;;;-1.54;63.74;102215.13;4998411;28;20041;-73
2022/03/08 02:58:26;;;;;;;8.05;6.03;;;;;;;-1.58;63.38;102210.59;5015462;28;20056;-72
2022/03/08 03:00:54;;;;;;;9.43;6.40;;;;;;;-1.58;63.70;102205.44;5011503;28;20524;-73
2022/03/08 03:03:24;;;;;;;8.40;5.75;;;;;;;-1.49;63.19;102195.72;5032055;28;20041;-73
2022/03/08 03:05:49;;;;;;;7.13;6.03;;;;;;;-1.46;63.46;102189.91;4995986;28;20042;-74
2022/03/08 03:08:15;;;;;;;7.28;5.35;;;;;;;-1.52;63.63;102186.94;5015105;28;20067;-73
2022/03/08 03:10:40;;;;;;;9.88;5.95;;;;;;;-1.42;63.05;102176.44;5011432;28;20084;-73
2022/03/08 03:13:06;;;;;;;9.00;5.72;;;;;;;-1.47;63.39;102171.00;5007642;28;20128;-73
2022/03/08 03:15:31;;;;;;;11.43;5.40;;;;;;;-1.41;63.13;102168.81;5016156;28;20037;-73
2022/03/08 03:18:08;;;;;;;9.18;5.95;;;;;;;-1.34;62.64;102164.00;5031382;28;20056;-73
2022/03/08 03:20:38;;;;;;;10.00;5.18;;;;;;;-1.40;63.26;102165.41;5028079;28;20044;-73
2022/03/08 03:23:04;;;;;;;7.43;5.25;;;;;;;-1.44;63.58;102158.34;5030078;28;20033;-74
2022/03/08 03:25:29;;;;;;;9.65;6.03;;;;;;;-1.45;63.28;102161.69;4991430;28;20053;-77
2022/03/08 03:27:55;;;;;;;9.10;5.28;;;;;;;-1.45;62.79;102156.56;5014219;28;20466;-74
2022/03/08 03:30:22;;;;;;;8.65;6.28;;;;;;;-1.41;62.48;102155.94;5007972;28;20394;-74
2022/03/08 03:32:48;;;;;;;9.00;6.53;;;;;;;-1.40;62.55;102154.25;4997566;28;20029;-75
2022/03/08 03:35:16;;;;;;;10.05;6.10;;;;;;;-1.42;62.95;102156.72;4998191;28;20553;-74
2022/03/08 03:37:43;;;;;;;8.68;6.15;;;;;;;-1.47;63.08;102155.56;5030715;28;20028;-73
2022/03/08 03:40:09;;;;;;;9.48;5.82;;;;;;;-1.50;63.29;102157.97;5013041;28;20026;-74
2022/03/08 03:42:35;;;;;;;9.98;6.72;;;;;;;-1.41;63.03;102162.75;5025821;28;20066;-78
2022/03/08 03:45:04;;;;;;;12.35;7.50;;;;;;;-1.41;63.51;102158.50;5027439;28;20037;-73
2022/03/08 03:47:29;;;;;;;7.45;5.78;;;;;;;-1.36;62.92;102165.63;5013799;28;20037;-75
2022/03/08 03:49:57;;;;;;;8.23;6.05;;;;;;;-1.40;63.51;102161.97;5012017;28;20467;-73
2022/03/08 03:52:25;;;;;;;13.40;5.75;;;;;;;-1.34;62.64;102164.88;5013446;28;20029;-75
2022/03/08 03:54:51;;;;;;;11.60;6.18;;;;;;;-1.41;63.85;102163.66;5024281;28;20040;-76
2022/03/08 03:57:16;;;;;;;8.60;5.93;;;;;;;-1.43;63.15;102170.38;4997923;28;20425;-75
2022/03/08 03:59:44;;;;;;;8.32;6.22;;;;;;;-1.40;63.48;102167.97;4998164;28;20040;-73
2022/03/08 04:02:10;;;;;;;9.27;6.25;;;;;;;-1.47;63.64;102168.41;5012305;28;20038;-75
2022/03/08 04:04:36;;;;;;;11.60;5.57;;;;;;;-1.47;63.27;102165.84;5014218;28;20353;-75
2022/03/08 04:07:01;;;;;;;8.00;6.07;;;;;;;-1.50;63.94;102168.25;5008030;28;20088;-76
2022/03/08 04:09:27;;;;;;;8.63;5.65;;;;;;;-1.47;63.28;102167.53;5030080;28;20040;-73
2022/03/08 04:11:54;;;;;;;9.20;5.32;;;;;;;-1.45;63.56;102155.66;5010194;28;20113;-75
2022/03/08 04:14:22;;;;;;;7.20;5.78;;;;;;;-1.44;62.61;102152.28;5027060;28;20422;-74
2022/03/08 04:16:48;;;;;;;9.52;6.30;;;;;;;-1.36;63.25;102160.47;5027015;28;20037;-75
2022/03/08 04:19:16;;;;;;;7.95;6.18;;;;;;;-1.47;63.36;102147.84;5027757;28;20061;-77
2022/03/08 04:21:44;;;;;;;8.63;5.97;;;;;;;-1.48;63.70;102147.75;5009166;28;20057;-73
2022/03/08 04:24:09;;;;;;;8.70;6.43;;;;;;;-1.54;63.65;102153.44;5029628;28;20374;-76
2022/03/08 04:26:35;;;;;;;12.50;5.75;;;;;;;-1.49;63.58;102153.72;5012355;28;20057;-74
2022/03/08 04:29:00;;;;;;;9.52;6.82;;;;;;;-1.52;63.12;102145.81;5029932;28;20744;-74
2022/03/08 04:31:25;;;;;;;8.52;6.32;;;;;;;-1.41;62.81;102148.22;5012491;28;20489;-75
2022/03/08 04:33:51;;;;;;;9.25;6.22;;;;;;;-1.43;62.85;102144.66;5011346;28;20510;-75
2022/03/08 04:36:16;;;;;;;9.48;7.18;;;;;;;-1.43;62.99;102144.66;4996647;28;20116;-74
2022/03/08 04:38:42;;;;;;;10.65;7.25;;;;;;;-1.46;63.10;102148.75;5012102;28;20056;-75
2022/03/08 04:41:07;;;;;;;8.70;5.93;;;;;;;-1.48;63.17;102156.38;5029937;28;20034;-75
2022/03/08 04:43:33;;;;;;;7.68;6.28;;;;;;;-1.40;62.64;102149.97;5024090;28;20073;-73
2022/03/08 04:46:02;;;;;;;8.25;5.25;;;;;;;-1.40;62.67;102139.69;5029911;28;20044;-74
2022/03/08 04:48:28;;;;;;;7.80;5.25;;;;;;;-1.36;62.59;102143.34;4995689;28;20525;-73
2022/03/08 04:50:54;;;;;;;10.90;6.00;;;;;;;-1.29;62.35;102142.91;5008181;28;20155;-77
2022/03/08 04:53:19;;;;;;;8.07;5.88;;;;;;;-1.35;63.02;102146.78;4988671;28;20025;-77
2022/03/08 04:55:45;;;;;;;7.05;5.28;;;;;;;-1.31;62.80;102143.59;4989681;28;20087;-77
2022/03/08 04:58:10;;;;;;;12.00;7.20;;;;;;;-1.43;63.34;102148.94;4991903;28;20033;-75
2022/03/08 05:00:36;;;;;;;9.30;6.65;;;;;;;-1.46;63.47;102141.91;5028734;28;20382;-74
2022/03/08 05:03:03;;;;;;;17.00;6.22;;;;;;;-1.50;63.71;102145.09;5026712;28;20045;-75
2022/03/08 05:05:32;;;;;;;9.38;5.45;;;;;;;-1.55;63.58;102143.97;5015146;28;20032;-74
2022/03/08 05:08:00;;;;;;;10.45;6.65;;;;;;;-1.61;64.10;102143.59;5024693;28;20034;-74
2022/03/08 05:10:26;;;;;;;11.00;6.82;;;;;;;-1.60;63.80;102145.38;5013440;28;20040;-72
2022/03/08 05:12:52;;;;;;;9.80;6.07;;;;;;;-1.59;63.79;102148.03;5012866;28;20055;-74
2022/03/08 05:15:19;;;;;;;8.45;5.35;;;;;;;-1.59;63.72;102142.00;4996862;28;20028;-72
2022/03/08 05:17:47;;;;;;;14.48;6.13;;;;;;;-1.68;64.18;102144.94;5027935;28;20044;-75
2022/03/08 05:20:15;;;;;;;9.50;6.88;;;;;;;-1.76;64.34;102143.56;5008133;28;20490;-73
2022/03/08 05:22:47;;;;;;;9.38;6.47;;;;;;;-1.72;64.49;102139.50;5011708;28;20033;-73
2022/03/08 05:25:13;;;;;;;6.65;5.95;;;;;;;-1.69;63.74;102134.56;5019637;28;20071;-74
2022/03/08 05:27:39;;;;;;;8.05;5.53;;;;;;;-1.73;64.24;102140.31;5003153;28;20534;-75
2022/03/08 05:30:05;;;;;;;8.85;7.40;;;;;;;-1.76;64.55;102135.88;5000771;28;20033;-75
2022/03/08 05:32:31;;;;;;;8.52;6.90;;;;;;;-1.76;64.57;102131.59;5017227;28;20152;-73
2022/03/08 05:34:57;;;;;;;7.40;5.68;;;;;;;-1.80;64.53;102136.47;5029678;28;20132;-76
2022/03/08 05:37:22;;;;;;;9.18;7.15;;;;;;;-1.77;64.62;102135.00;5031004;28;20040;-74
2022/03/08 05:39:48;;;;;;;8.13;5.90;;;;;;;-1.75;64.04;102129.94;5005713;28;20029;-75
2022/03/08 05:42:13;;;;;;;12.20;6.80;;;;;;;-1.81;64.71;102129.56;5029192;28;20032;-73
2022/03/08 05:44:41;;;;;;;8.25;6.35;;;;;;;-1.86;65.31;102131.84;5013305;28;20037;-74
2022/03/08 05:47:09;;;;;;;10.07;7.15;;;;;;;-1.89;65.28;102139.38;5021700;28;20064;-74
2022/03/08 05:49:36;;;;;;;12.60;8.40;;;;;;;-1.93;65.55;102137.44;5012345;28;20171;-74
2022/03/08 05:52:01;;;;;;;9.07;6.85;;;;;;;-1.99;65.58;102132.81;5004034;28;21177;-73
2022/03/08 05:54:29;;;;;;;10.70;7.07;;;;;;;-1.99;65.25;102134.50;4993001;28;20033;-73
2022/03/08 05:56:55;;;;;;;9.45;6.30;;;;;;;-2.08;65.59;102137.41;4996208;28;20155;-74
2022/03/08 05:59:20;;;;;;;8.80;6.75;;;;;;;-2.04;65.24;102130.75;5013714;28;20124;-74
2022/03/08 06:01:48;;;;;;;10.52;7.55;;;;;;;-2.13;66.15;102136.22;5026192;28;20124;-75
2022/03/08 06:04:13;;;;;;;9.73;6.53;;;;;;;-2.15;65.86;102138.69;5008501;28;20026;-74
2022/03/08 06:06:39;;;;;;;9.27;6.60;;;;;;;-2.14;65.95;102135.34;5024186;28;20033;-74
2022/03/08 06:09:04;;;;;;;10.82;6.50;;;;;;;-2.11;66.00;102142.34;5012786;28;20051;-76
2022/03/08 06:11:29;;;;;;;7.90;6.53;;;;;;;-2.13;66.21;102139.66;5009661;28;20025;-75
2022/03/08 06:13:55;;;;;;;9.05;6.72;;;;;;;-2.11;66.30;102145.81;5027711;28;20029;-76
2022/03/08 06:16:20;;;;;;;11.32;6.55;;;;;;;-2.09;66.38;102141.63;5030109;28;20037;-74
2022/03/08 06:18:46;;;;;;;12.57;8.07;;;;;;;-2.07;66.25;102138.28;4996958;28;20180;-75
2022/03/08 06:21:11;;;;;;;12.95;8.05;;;;;;;-1.98;65.78;102141.41;5011042;28;20044;-74
2022/03/08 06:23:39;;;;;;;9.05;6.63;;;;;;;-1.99;65.73;102143.06;5034346;28;20175;-76
2022/03/08 06:26:04;;;;;;;10.65;8.43;;;;;;;-1.84;65.69;102145.69;4999318;28;20065;-75
2022/03/08 06:28:30;;;;;;;8.23;6.03;;;;;;;-1.77;65.19;102145.28;5015961;28;20033;-75
2022/03/08 06:30:56;;;;;;;10.82;6.60;;;;;;;-1.49;64.48;102138.28;5015073;28;20116;-76
2022/03/08 06:33:21;;;;;;;9.77;6.88;;;;;;;-1.34;64.39;102153.72;5013441;28;20102;-74
2022/03/08 06:35:47;;;;;;;9.98;6.20;;;;;;;-1.20;63.99;102146.81;4990797;28;20119;-74
2022/03/08 06:38:12;;;;;;;12.70;7.15;;;;;;;-1.17;63.94;102145.28;4998884;28;20060;-77
2022/03/08 06:40:38;;;;;;;11.30;8.02;;;;;;;-1.01;63.51;102143.59;4999009;28;20061;-75
2022/03/08 06:43:03;;;;;;;9.48;5.55;;;;;;;-0.46;62.47;102146.66;5027602;28;20122;-75
2022/03/08 06:45:29;;;;;;;9.07;6.55;;;;;;;0.29;60.51;102141.97;5012836;28;20386;-75
2022/03/08 06:47:54;;;;;;;11.95;6.90;;;;;;;0.95;58.18;102136.63;5022302;28;20536;-75
2022/03/08 06:50:21;;;;;;;10.35;7.82;;;;;;;1.66;56.32;102133.91;5011033;28;20067;-75
2022/03/08 06:52:46;;;;;;;8.57;6.03;;;;;;;2.27;54.34;102133.16;5026283;28;20091;-73
2022/03/08 06:55:13;;;;;;;12.50;7.68;;;;;;;2.89;53.29;102125.34;5006983;28;20331;-76
2022/03/08 06:57:39;;;;;;;10.35;6.93;;;;;;;3.36;50.53;102130.63;5025379;28;20022;-76
2022/03/08 07:00:05;;;;;;;10.43;6.90;;;;;;;3.89;49.76;102128.28;5012686;28;20037;-75
2022/03/08 07:02:31;;;;;;;7.20;6.07;;;;;;;4.38;48.77;102122.22;5029961;28;20494;-75
2022/03/08 07:04:59;;;;;;;12.48;6.95;;;;;;;4.83;47.86;102128.94;5026563;28;20068;-75
2022/03/08 07:07:24;;;;;;;9.40;6.97;;;;;;;5.14;46.47;102129.88;5019452;28;20037;-75
2022/03/08 07:09:52;;;;;;;10.98;6.28;;;;;;;5.54;46.03;102126.78;4991236;28;20038;-73
2022/03/08 07:12:20;;;;;;;9.77;6.07;;;;;;;5.93;44.48;102124.41;5029642;28;20065;-77
2022/03/08 07:14:48;;;;;;;8.73;6.30;;;;;;;6.14;43.83;102132.84;4995459;28;20121;-74
2022/03/08 07:17:14;;;;;;;7.32;5.85;;;;;;;6.37;42.95;102122.16;5022097;28;20458;-77
2022/03/08 07:19:41;;;;;;;6.40;5.80;;;;;;;6.65;42.72;102123.75;4994930;28;20059;-73
2022/03/08 07:22:07;;;;;;;10.23;7.47;;;;;;;6.73;42.02;102131.75;4991348;28;20038;-76
2022/03/08 07:24:34;;;;;;;11.05;7.60;;;;;;;6.97;41.21;102135.78;5014238;28;20120;-74
2022/03/08 07:27:01;;;;;;;8.48;7.45;;;;;;;7.30;39.33;102130.50;4985717;28;20050;-74
2022/03/08 07:29:27;;;;;;;7.72;6.68;;;;;;;7.60;39.90;102124.16;4998302;28;20418;-76
2022/03/08 07:31:52;;;;;;;11.13;7.80;;;;;;;7.70;40.26;102130.47;5026873;28;20032;-73
2022/03/08 07:34:17;;;;;;;10.75;6.88;;;;;;;8.08;38.31;102143.41;4991073;28;20029;-75
2022/03/08 07:36:48;;;;;;;10.20;7.00;;;;;;;8.36;37.52;102133.47;5013184;28;20036;-75
2022/03/08 07:39:13;;;;;;;9.27;6.47;;;;;;;8.58;37.45;102127.81;5010465;28;20175;-74
2022/03/08 07:41:39;;;;;;;9.10;7.70;;;;;;;8.70;36.60;102137.59;5009979;28;20040;-76
2022/03/08 07:44:04;;;;;;;7.53;6.22;;;;;;;8.79;36.58;102136.88;4994689;28;20052;-75
2022/03/08 07:46:30;;;;;;;7.97;7.28;;;;;;;8.96;36.47;102138.00;5012795;28;20040;-75
2022/03/08 07:48:55;;;;;;;8.60;7.15;;;;;;;9.03;36.46;102136.38;5012181;28;20091;-75
2022/03/08 07:51:21;;;;;;;9.65;6.40;;;;;;;9.57;36.36;102128.41;5013748;28;20476;-73
2022/03/08 07:53:46;;;;;;;9.65;8.07;;;;;;;10.08;34.29;102127.28;5009506;28;20415;-74
2022/03/08 07:56:12;;;;;;;8.02;6.05;;;;;;;10.37;34.02;102127.63;5029321;28;20608;-77
2022/03/08 07:58:40;;;;;;;10.15;7.32;;;;;;;10.08;33.14;102118.56;4997067;28;20021;-74
2022/03/08 08:01:05;;;;;;;9.00;7.82;;;;;;;10.17;34.13;102116.03;4996871;28;20099;-73
2022/03/08 08:03:31;;;;;;;8.43;7.22;;;;;;;10.68;33.07;102120.03;5030068;28;20481;-76
2022/03/08 08:05:56;;;;;;;10.57;8.82;;;;;;;10.69;33.09;102121.78;5012459;28;20128;-74
2022/03/08 08:08:22;;;;;;;11.32;8.30;;;;;;;10.95;33.09;102126.38;4995009;28;20041;-75
2022/03/08 08:10:47;;;;;;;12.48;7.93;;;;;;;10.89;32.81;102115.84;5009368;28;20460;-74
2022/03/08 08:13:13;;;;;;;8.38;5.72;;;;;;;10.98;32.98;102138.63;4993887;28;20041;-75
2022/03/08 08:15:41;;;;;;;7.07;6.07;;;;;;;11.14;32.50;102129.13;4996812;28;20531;-74
2022/03/08 08:18:07;;;;;;;8.20;7.40;;;;;;;11.07;32.19;102139.56;5012299;28;20025;-76
2022/03/08 08:20:35;;;;;;;7.03;5.65;;;;;;;11.11;32.19;102131.72;5007909;28;20041;-76
2022/03/08 08:23:01;;;;;;;9.77;7.15;;;;;;;11.15;31.14;102129.13;5010357;28;20120;-77
2022/03/08 08:25:26;;;;;;;12.40;7.70;;;;;;;11.42;31.27;102131.03;5009812;28;20038;-77
2022/03/08 08:27:52;;;;;;;9.65;6.57;;;;;;;11.94;30.48;102127.78;5028763;28;20061;-74
2022/03/08 08:30:20;;;;;;;17.27;7.30;;;;;;;11.81;30.96;102144.34;5014373;28;20034;-75
2022/03/08 08:32:50;;;;;;;12.65;8.75;;;;;;;11.68;30.69;102134.63;5012022;28;20537;-76
2022/03/08 08:35:16;;;;;;;9.63;7.03;;;;;;;11.41;30.35;102142.41;5002617;28;20682;-75
2022/03/08 08:37:44;;;;;;;7.85;6.30;;;;;;;11.48;31.51;102147.66;5027515;28;20030;-76
2022/03/08 08:40:11;;;;;;;8.98;7.07;;;;;;;11.55;30.93;102144.22;5028958;28;20053;-75
2022/03/08 08:42:40;;;;;;;7.72;5.80;;;;;;;11.90;31.73;102135.63;5007270;28;20046;-75
2022/03/08 08:45:09;;;;;;;8.32;7.53;;;;;;;11.98;30.18;102128.66;5028800;28;20029;-74
2022/03/08 08:47:35;;;;;;;15.70;8.70;;;;;;;11.75;29.88;102137.31;5009675;28;20033;-76
2022/03/08 08:50:01;;;;;;;7.28;6.57;;;;;;;11.48;31.25;102139.78;5012315;28;20029;-77
2022/03/08 08:52:26;;;;;;;11.98;7.25;;;;;;;11.90;31.02;102141.75;5011807;28;20132;-76
2022/03/08 08:54:52;;;;;;;24.52;10.32;;;;;;;12.02;28.84;102143.56;5016929;28;20025;-76
2022/03/08 08:57:20;;;;;;;11.00;7.95;;;;;;;11.83;30.24;102129.47;5009934;28;20037;-75
2022/03/08 08:59:47;;;;;;;13.73;6.30;;;;;;;12.21;29.95;102117.31;5011569;28;20475;-75
2022/03/08 09:02:16;;;;;;;8.57;5.90;;;;;;;12.63;29.66;102118.28;5011469;28;20124;-76
2022/03/08 09:04:43;;;;;;;15.88;8.65;;;;;;;13.07;28.92;102121.72;5023076;28;20104;-75
2022/03/08 09:07:10;;;;;;;16.15;9.05;;;;;;;13.10;29.26;102119.97;5005834;28;20040;-76
2022/03/08 09:09:35;;;;;;;7.65;6.28;;;;;;;13.18;28.65;102120.81;5006593;28;20045;-77
2022/03/08 09:12:00;;;;;;;18.48;10.20;;;;;;;12.53;28.29;102106.88;5006997;28;20096;-75
2022/03/08 09:14:26;;;;;;;13.65;7.00;;;;;;;12.56;29.78;102112.13;5008565;28;20041;-76
2022/03/08 09:16:52;;;;;;;15.70;6.85;;;;;;;12.25;30.32;102106.81;4982028;28;20052;-74
2022/03/08 09:19:17;;;;;;;42.78;14.00;;;;;;;12.38;28.73;102099.81;5001736;28;20104;-76
2022/03/08 09:21:43;;;;;;;15.40;9.02;;;;;;;12.16;29.31;102098.06;5009081;28;20035;-76
2022/03/08 09:24:08;;;;;;;16.10;6.72;;;;;;;11.95;28.28;102105.00;5006542;28;20072;-74
2022/03/08 09:26:34;;;;;;;23.75;13.13;;;;;;;11.20;30.21;102114.28;5007579;28;20064;-75
2022/03/08 09:28:59;;;;;;;23.02;11.88;;;;;;;8.96;33.29;102105.78;5002357;28;20030;-77
2022/03/08 09:31:27;;;;;;;16.27;9.65;;;;;;;7.94;35.99;102097.06;5005865;28;20042;-75
2022/03/08 09:33:52;;;;;;;19.98;11.63;;;;;;;7.15;37.28;102104.94;5008980;28;20048;-76
2022/03/08 09:36:20;;;;;;;45.97;17.20;;;;;;;6.71;38.45;102112.59;5007080;28;20462;-83
2022/03/08 09:38:48;;;;;;;22.92;10.43;;;;;;;6.22;38.73;102094.00;5023923;28;20036;-74
2022/03/08 09:41:14;;;;;;;16.63;9.32;;;;;;;6.21;39.72;102092.25;4997901;28;20478;-75
2022/03/08 09:43:39;;;;;;;12.88;9.23;;;;;;;6.27;38.96;102104.56;5012009;28;20030;-74
2022/03/08 09:46:11;;;;;;;16.38;9.95;;;;;;;5.93;40.21;102085.38;5028150;28;20029;-76
2022/03/08 09:48:36;;;;;;;18.90;10.77;;;;;;;6.07;40.46;102086.66;5029467;28;20124;-73
2022/03/08 09:51:06;;;;;;;13.60;8.27;;;;;;;6.13;40.44;102079.03;5009354;28;20656;-75
2022/03/08 09:53:32;;;;;;;11.60;7.57;;;;;;;6.90;40.59;102086.13;5015032;28;20030;-74
2022/03/08 09:56:02;;;;;;;13.20;9.60;;;;;;;8.62;35.70;102077.38;5031303;28;20025;-75
2022/03/08 09:58:28;;;;;;;9.93;7.55;;;;;;;10.17;32.97;102068.88;5014356;28;20049;-74
2022/03/08 10:00:55;;;;;;;18.52;7.38;;;;;;;10.44;33.98;102080.50;4998976;28;20068;-75
2022/03/08 10:03:44;;;;;;;12.77;8.77;;;;;;;11.39;31.59;102060.16;4998144;28;20040;-74
2022/03/08 10:06:11;;;;;;;8.27;6.43;;;;;;;11.95;30.27;102069.13;5013729;28;20116;-73
2022/03/08 10:08:39;;;;;;;13.80;9.90;;;;;;;12.68;28.97;102058.63;5015374;28;20079;-75
2022/03/08 10:11:07;;;;;;;15.40;10.80;;;;;;;12.07;28.12;102065.63;5032919;28;20033;-75
2022/03/08 10:13:41;;;;;;;73.38;34.83;;;;;;;11.48;31.08;102053.16;5027523;28;20087;-73
2022/03/08 10:16:15;;;;;;;12.38;7.47;;;;;;;11.53;31.33;102049.69;5008455;28;20030;-73
2022/03/08 10:19:08;;;;;;;30.23;16.88;;;;;;;12.13;29.80;102055.13;5030756;28;20032;-73
2022/03/08 10:21:38;;;;;;;32.13;19.40;;;;;;;12.38;29.13;102033.25;5026937;28;20552;-74
2022/03/08 10:24:23;;;;;;;25.77;10.07;;;;;;;12.51;28.21;102049.88;5029219;28;20382;-74
2022/03/08 10:26:50;;;;;;;8.05;7.00;;;;;;;12.88;28.08;102049.84;5027491;28;20041;-72
2022/03/08 10:29:26;;;;;;;32.58;19.55;;;;;;;13.11;25.56;102058.56;5031274;28;20100;-75
2022/03/08 10:32:07;;;;;;;31.58;16.55;;;;;;;13.36;26.47;102055.00;5031040;28;20037;-72
2022/03/08 10:34:33;;;;;;;23.90;13.60;;;;;;;13.91;25.20;102040.69;5028352;28;20049;-74
2022/03/08 10:37:14;;;;;;;35.05;17.33;;;;;;;13.83;25.63;102044.25;5031115;28;20500;-74
2022/03/08 10:40:04;;;;;;;33.80;19.13;;;;;;;13.13;25.41;102045.38;5030288;28;20037;-75
2022/03/08 10:42:38;;;;;;;61.00;31.00;;;;;;;11.98;27.68;102026.19;5029629;28;20046;-74
2022/03/08 10:45:08;;;;;;;46.63;25.02;;;;;;;12.83;27.59;102042.84;5031042;28;20033;-73
2022/03/08 10:47:42;;;;;;;36.00;19.75;;;;;;;13.39;26.35;102036.56;5029988;28;20033;-74
2022/03/08 10:50:10;;;;;;;23.20;10.73;;;;;;;13.72;26.48;102027.63;5013980;28;20053;-76
2022/03/08 10:52:41;;;;;;;10.18;7.45;;;;;;;13.85;25.31;102026.66;5023878;28;20026;-72
2022/03/08 10:55:14;;;;;;;10.10;6.50;;;;;;;14.72;25.39;102041.81;5031331;28;20047;-73
2022/03/08 10:57:44;;;;;;;35.50;18.98;;;;;;;15.80;24.34;102023.81;5029481;28;20528;-73
2022/03/08 11:00:17;;;;;;;6.07;5.03;;;;;;;15.48;24.22;102010.13;5030077;28;20481;-74
2022/03/08 11:02:49;;;;;;;45.15;27.20;;;;;;;16.19;22.95;102006.47;5014575;28;20041;-76
2022/03/08 11:05:16;;;;;;;29.13;19.20;;;;;;;16.16;23.96;102008.25;5030743;28;20030;-74
2022/03/08 11:07:41;;;;;;;10.77;7.32;;;;;;;15.87;22.34;102005.16;5010115;28;20034;-74
2022/03/08 11:10:12;;;;;;;16.20;11.70;;;;;;;16.48;24.38;102004.19;4997646;28;20037;-74
2022/03/08 11:12:39;;;;;;;22.20;13.88;;;;;;;16.13;22.82;102003.88;5030490;28;20528;-74
2022/03/08 11:15:06;;;;;;;13.02;10.45;;;;;;;16.18;23.43;102010.00;5030759;28;20040;-75
2022/03/08 11:17:35;;;;;;;5.35;4.85;;;;;;;16.05;23.71;102003.16;5013046;28;20489;-74
2022/03/08 11:20:08;;;;;;;8.73;6.18;;;;;;;15.28;23.08;102009.50;5013296;28;20036;-74
2022/03/08 11:22:35;;;;;;;12.65;9.38;;;;;;;12.76;26.17;102009.53;5030223;28;20025;-76